NOO6333 RJOK-RJFF
Flight info
| Callsign | NOO6333 |
|---|---|
| Flight time | 1h 8m |
| Altitude | 24000 |
| Route | OMOGO V56 MARCO Y256 STOUT Y20 KIRIN |
| Aircraft | DH8D/M-SDE2E3FGRY/H |
Departure
| Time | 2026-04-21 00:16 |
|---|---|
| Airport | Kochi Ryoma Airport (RJOK) |
Arrival
| Time | 2026-04-21 01:24 |
|---|---|
| Airport | Fukuoka Airport (RJFF) |
| Time | Latitude | Longitude | Altitude | Speed | Heading |
|---|---|---|---|---|---|
| 2026-04-21 00:00 | 33.54772 | 133.67253 | 40 ft | 0 kts | 179° |
| 2026-04-21 00:09 | 33.54769 | 133.67253 | 40 ft | 2 kts | 178° |
| 2026-04-21 00:09 | 33.54734 | 133.67230 | 40 ft | 8 kts | 216° |
| 2026-04-21 00:09 | 33.54690 | 133.67191 | 40 ft | 7 kts | 218° |
| 2026-04-21 00:10 | 33.54650 | 133.67180 | 39 ft | 7 kts | 135° |
| 2026-04-21 00:10 | 33.54606 | 133.67242 | 38 ft | 14 kts | 132° |
| 2026-04-21 00:10 | 33.54527 | 133.67352 | 37 ft | 16 kts | 129° |
| 2026-04-21 00:10 | 33.54459 | 133.67448 | 36 ft | 13 kts | 133° |
| 2026-04-21 00:11 | 33.54393 | 133.67535 | 36 ft | 14 kts | 130° |
| 2026-04-21 00:11 | 33.54327 | 133.67629 | 36 ft | 14 kts | 130° |
| 2026-04-21 00:11 | 33.54259 | 133.67725 | 34 ft | 15 kts | 130° |
| 2026-04-21 00:11 | 33.54184 | 133.67830 | 33 ft | 16 kts | 130° |
| 2026-04-21 00:12 | 33.54110 | 133.67932 | 33 ft | 16 kts | 130° |
| 2026-04-21 00:12 | 33.54048 | 133.68018 | 32 ft | 9 kts | 130° |
| 2026-04-21 00:12 | 33.54000 | 133.68054 | 32 ft | 9 kts | 177° |
| 2026-04-21 00:12 | 33.53955 | 133.68033 | 32 ft | 3 kts | 221° |
| 2026-04-21 00:13 | 33.53952 | 133.68030 | 32 ft | 0 kts | 221° |
| 2026-04-21 00:14 | 33.53936 | 133.68013 | 32 ft | 4 kts | 221° |
| 2026-04-21 00:14 | 33.53905 | 133.67979 | 32 ft | 7 kts | 222° |
| 2026-04-21 00:14 | 33.53883 | 133.67944 | 32 ft | 1 kts | 301° |
| 2026-04-21 00:14 | 33.53884 | 133.67944 | 32 ft | 0 kts | 311° |
| 2026-04-21 00:15 | 33.53896 | 133.67928 | 32 ft | 24 kts | 313° |
| 2026-04-21 00:16 | 33.54230 | 133.67462 | 36 ft | 114 kts | 310° |
| 2026-04-21 00:16 | 33.54852 | 133.66628 | 256 ft | 144 kts | 319° |
| 2026-04-21 00:16 | 33.55565 | 133.65739 | 892 ft | 154 kts | 326° |
| 2026-04-21 00:16 | 33.56590 | 133.65416 | 1460 ft | 162 kts | 9° |
| 2026-04-21 00:17 | 33.57475 | 133.66242 | 2057 ft | 177 kts | 57° |
| 2026-04-21 00:17 | 33.58005 | 133.67609 | 2809 ft | 183 kts | 61° |
| 2026-04-21 00:17 | 33.58525 | 133.68968 | 3472 ft | 188 kts | 60° |
| 2026-04-21 00:17 | 33.59090 | 133.70435 | 4080 ft | 195 kts | 59° |
| 2026-04-21 00:18 | 33.59654 | 133.71901 | 4731 ft | 200 kts | 59° |
| 2026-04-21 00:18 | 33.60061 | 133.73509 | 5424 ft | 212 kts | 83° |
| 2026-04-21 00:18 | 33.59515 | 133.75182 | 6024 ft | 229 kts | 123° |
| 2026-04-21 00:18 | 33.58461 | 133.76657 | 6630 ft | 235 kts | 128° |
| 2026-04-21 00:19 | 33.57384 | 133.78122 | 7290 ft | 239 kts | 129° |
| 2026-04-21 00:19 | 33.56289 | 133.79614 | 7989 ft | 240 kts | 129° |
| 2026-04-21 00:19 | 33.55191 | 133.81119 | 8586 ft | 245 kts | 130° |
| 2026-04-21 00:19 | 33.53922 | 133.82466 | 9176 ft | 248 kts | 156° |
| 2026-04-21 00:20 | 33.52284 | 133.82709 | 9660 ft | 235 kts | 201° |
| 2026-04-21 00:20 | 33.50936 | 133.81761 | 10238 ft | 220 kts | 228° |
| 2026-04-21 00:20 | 33.49792 | 133.80588 | 10877 ft | 216 kts | 229° |
| 2026-04-21 00:20 | 33.48686 | 133.79437 | 11537 ft | 212 kts | 230° |
| 2026-04-21 00:21 | 33.47586 | 133.78270 | 12097 ft | 211 kts | 230° |
| 2026-04-21 00:21 | 33.46507 | 133.77112 | 12616 ft | 212 kts | 230° |
| 2026-04-21 00:21 | 33.45419 | 133.75938 | 13219 ft | 208 kts | 231° |
| 2026-04-21 00:21 | 33.44351 | 133.74776 | 13682 ft | 210 kts | 232° |
| 2026-04-21 00:22 | 33.43285 | 133.73612 | 14165 ft | 210 kts | 232° |
| 2026-04-21 00:22 | 33.42204 | 133.72427 | 14652 ft | 209 kts | 232° |
| 2026-04-21 00:22 | 33.41130 | 133.71249 | 15069 ft | 210 kts | 232° |
| 2026-04-21 00:22 | 33.40058 | 133.70071 | 15511 ft | 211 kts | 232° |
| 2026-04-21 00:23 | 33.38985 | 133.68890 | 15900 ft | 212 kts | 233° |
| 2026-04-21 00:23 | 33.37951 | 133.67641 | 16305 ft | 205 kts | 244° |
| 2026-04-21 00:23 | 33.37674 | 133.66081 | 16631 ft | 194 kts | 283° |
| 2026-04-21 00:23 | 33.38350 | 133.64670 | 16896 ft | 204 kts | 302° |
| 2026-04-21 00:24 | 33.39259 | 133.63373 | 17293 ft | 205 kts | 303° |
| 2026-04-21 00:24 | 33.40194 | 133.62083 | 17654 ft | 205 kts | 304° |
| 2026-04-21 00:24 | 33.41132 | 133.60820 | 18021 ft | 206 kts | 304° |
| 2026-04-21 00:24 | 33.42097 | 133.59532 | 18363 ft | 207 kts | 303° |
| 2026-04-21 00:25 | 33.43063 | 133.58255 | 18724 ft | 208 kts | 304° |
| 2026-04-21 00:25 | 33.44039 | 133.56973 | 19048 ft | 209 kts | 304° |
| 2026-04-21 00:25 | 33.45017 | 133.55696 | 19333 ft | 213 kts | 304° |
| 2026-04-21 00:25 | 33.46021 | 133.54384 | 19654 ft | 212 kts | 304° |
| 2026-04-21 00:26 | 33.47013 | 133.53093 | 19922 ft | 216 kts | 303° |
| 2026-04-21 00:26 | 33.48063 | 133.51720 | 20000 ft | 227 kts | 304° |
| 2026-04-21 00:26 | 33.49155 | 133.50291 | 20032 ft | 239 kts | 305° |
| 2026-04-21 00:26 | 33.50293 | 133.48807 | 20048 ft | 250 kts | 305° |
| 2026-04-21 00:27 | 33.51497 | 133.47244 | 20053 ft | 260 kts | 305° |
| 2026-04-21 00:27 | 33.52743 | 133.45625 | 20065 ft | 268 kts | 306° |
| 2026-04-21 00:27 | 33.54040 | 133.43945 | 20061 ft | 275 kts | 306° |
| 2026-04-21 00:27 | 33.55344 | 133.42256 | 20051 ft | 281 kts | 306° |
| 2026-04-21 00:28 | 33.56679 | 133.40529 | 20071 ft | 284 kts | 306° |
| 2026-04-21 00:28 | 33.58043 | 133.38762 | 20068 ft | 288 kts | 306° |
| 2026-04-21 00:28 | 33.59396 | 133.37007 | 20069 ft | 291 kts | 306° |
| 2026-04-21 00:28 | 33.60783 | 133.35210 | 20074 ft | 293 kts | 306° |
| 2026-04-21 00:29 | 33.62159 | 133.33424 | 20074 ft | 296 kts | 306° |
| 2026-04-21 00:29 | 33.63571 | 133.31589 | 20067 ft | 297 kts | 306° |
| 2026-04-21 00:29 | 33.64974 | 133.29768 | 20066 ft | 294 kts | 305° |
| 2026-04-21 00:29 | 33.66132 | 133.27824 | 20050 ft | 283 kts | 290° |
| 2026-04-21 00:30 | 33.66796 | 133.25641 | 20061 ft | 279 kts | 285° |
| 2026-04-21 00:30 | 33.67411 | 133.23418 | 20064 ft | 277 kts | 285° |
| 2026-04-21 00:30 | 33.68006 | 133.21254 | 20061 ft | 276 kts | 285° |
| 2026-04-21 00:30 | 33.68618 | 133.19070 | 20057 ft | 275 kts | 286° |
| 2026-04-21 00:31 | 33.69247 | 133.16901 | 20075 ft | 274 kts | 287° |
| 2026-04-21 00:31 | 33.69879 | 133.14732 | 20077 ft | 273 kts | 286° |
| 2026-04-21 00:31 | 33.70502 | 133.12595 | 20073 ft | 273 kts | 286° |
| 2026-04-21 00:31 | 33.71131 | 133.10432 | 20071 ft | 272 kts | 286° |
| 2026-04-21 00:32 | 33.71746 | 133.08318 | 20066 ft | 272 kts | 287° |
| 2026-04-21 00:32 | 33.72368 | 133.06178 | 20073 ft | 271 kts | 287° |
| 2026-04-21 00:32 | 33.72990 | 133.04036 | 20079 ft | 270 kts | 286° |
| 2026-04-21 00:32 | 33.73608 | 133.01907 | 20070 ft | 271 kts | 286° |
| 2026-04-21 00:33 | 33.74229 | 132.99764 | 20070 ft | 271 kts | 286° |
| 2026-04-21 00:33 | 33.74840 | 132.97652 | 20083 ft | 271 kts | 286° |
| 2026-04-21 00:33 | 33.75458 | 132.95520 | 20079 ft | 271 kts | 286° |
| 2026-04-21 00:33 | 33.76082 | 132.93364 | 20065 ft | 271 kts | 286° |
| 2026-04-21 00:34 | 33.76700 | 132.91226 | 20085 ft | 270 kts | 286° |
| 2026-04-21 00:34 | 33.77313 | 132.89105 | 20087 ft | 270 kts | 286° |
| 2026-04-21 00:34 | 33.77928 | 132.86975 | 20091 ft | 270 kts | 286° |
| 2026-04-21 00:34 | 33.78544 | 132.84839 | 20104 ft | 270 kts | 286° |
| 2026-04-21 00:35 | 33.79158 | 132.82709 | 20091 ft | 270 kts | 287° |
| 2026-04-21 00:35 | 33.79772 | 132.80579 | 20084 ft | 270 kts | 286° |
| 2026-04-21 00:35 | 33.80383 | 132.78453 | 20085 ft | 270 kts | 287° |
| 2026-04-21 00:35 | 33.81002 | 132.76303 | 20089 ft | 270 kts | 286° |
| 2026-04-21 00:36 | 33.81613 | 132.74179 | 20089 ft | 270 kts | 287° |
| 2026-04-21 00:36 | 33.82223 | 132.72055 | 20091 ft | 270 kts | 286° |
| 2026-04-21 00:36 | 33.82833 | 132.69936 | 20092 ft | 270 kts | 287° |
| 2026-04-21 00:36 | 33.83622 | 132.67853 | 20093 ft | 273 kts | 294° |
| 2026-04-21 00:37 | 33.84542 | 132.65865 | 20090 ft | 273 kts | 294° |
| 2026-04-21 00:37 | 33.85463 | 132.63886 | 20093 ft | 273 kts | 294° |
| 2026-04-21 00:37 | 33.86387 | 132.61896 | 20105 ft | 273 kts | 295° |
| 2026-04-21 00:37 | 33.87322 | 132.59878 | 20103 ft | 273 kts | 294° |
| 2026-04-21 00:38 | 33.88236 | 132.57901 | 20096 ft | 273 kts | 294° |
| 2026-04-21 00:38 | 33.89164 | 132.55888 | 20094 ft | 273 kts | 295° |
| 2026-04-21 00:38 | 33.90078 | 132.53905 | 20096 ft | 274 kts | 294° |
| 2026-04-21 00:38 | 33.91002 | 132.51897 | 20092 ft | 274 kts | 294° |
| 2026-04-21 00:39 | 33.91924 | 132.49890 | 20089 ft | 273 kts | 295° |
| 2026-04-21 00:39 | 33.92835 | 132.47905 | 20095 ft | 273 kts | 295° |
| 2026-04-21 00:39 | 33.93752 | 132.45905 | 20091 ft | 273 kts | 294° |
| 2026-04-21 00:39 | 33.94672 | 132.43896 | 20094 ft | 273 kts | 295° |
| 2026-04-21 00:40 | 33.95592 | 132.41888 | 20099 ft | 273 kts | 295° |
| 2026-04-21 00:40 | 33.96502 | 132.39900 | 20102 ft | 273 kts | 294° |
| 2026-04-21 00:40 | 33.97417 | 132.37900 | 20096 ft | 272 kts | 294° |
| 2026-04-21 00:40 | 33.98327 | 132.35907 | 20097 ft | 272 kts | 295° |
| 2026-04-21 00:41 | 33.99234 | 132.33920 | 20097 ft | 272 kts | 294° |
| 2026-04-21 00:41 | 34.00148 | 132.31920 | 20101 ft | 272 kts | 294° |
| 2026-04-21 00:41 | 34.01061 | 132.29916 | 20108 ft | 272 kts | 294° |
| 2026-04-21 00:41 | 34.01976 | 132.27910 | 20102 ft | 273 kts | 294° |
| 2026-04-21 00:42 | 34.02885 | 132.25913 | 20098 ft | 273 kts | 294° |
| 2026-04-21 00:42 | 34.03793 | 132.23921 | 20097 ft | 273 kts | 293° |
| 2026-04-21 00:42 | 34.04712 | 132.21901 | 20104 ft | 273 kts | 294° |
| 2026-04-21 00:42 | 34.05614 | 132.19919 | 20106 ft | 273 kts | 294° |
| 2026-04-21 00:43 | 34.06528 | 132.17908 | 20106 ft | 273 kts | 294° |
| 2026-04-21 00:43 | 34.07449 | 132.15878 | 20105 ft | 273 kts | 294° |
| 2026-04-21 00:43 | 34.08099 | 132.13765 | 20095 ft | 268 kts | 279° |
| 2026-04-21 00:43 | 34.08347 | 132.11565 | 20097 ft | 268 kts | 276° |
| 2026-04-21 00:44 | 34.08567 | 132.09340 | 20102 ft | 268 kts | 276° |
| 2026-04-21 00:44 | 34.08787 | 132.07091 | 20105 ft | 267 kts | 276° |
| 2026-04-21 00:44 | 34.09005 | 132.04884 | 20109 ft | 268 kts | 277° |
| 2026-04-21 00:45 | 34.09450 | 132.00413 | 20103 ft | 268 kts | 277° |
| 2026-04-21 00:45 | 34.09671 | 131.98213 | 20097 ft | 268 kts | 276° |
| 2026-04-21 00:45 | 34.09895 | 131.95985 | 20107 ft | 267 kts | 277° |
| 2026-04-21 00:45 | 34.10121 | 131.93738 | 20108 ft | 267 kts | 277° |
| 2026-04-21 00:46 | 34.10344 | 131.91515 | 20101 ft | 268 kts | 277° |
| 2026-04-21 00:46 | 34.10569 | 131.89287 | 20099 ft | 268 kts | 277° |
| 2026-04-21 00:46 | 34.10794 | 131.87053 | 20094 ft | 269 kts | 277° |
| 2026-04-21 00:46 | 34.11017 | 131.84828 | 20103 ft | 269 kts | 277° |
| 2026-04-21 00:47 | 34.11242 | 131.82585 | 20096 ft | 269 kts | 277° |
| 2026-04-21 00:47 | 34.11467 | 131.80342 | 20096 ft | 269 kts | 277° |
| 2026-04-21 00:47 | 34.11692 | 131.78093 | 20102 ft | 269 kts | 276° |
| 2026-04-21 00:47 | 34.11914 | 131.75870 | 20099 ft | 270 kts | 277° |
| 2026-04-21 00:48 | 34.12140 | 131.73612 | 20102 ft | 270 kts | 277° |
| 2026-04-21 00:48 | 34.12368 | 131.71391 | 20098 ft | 270 kts | 277° |
| 2026-04-21 00:48 | 34.12612 | 131.69139 | 20098 ft | 269 kts | 278° |
| 2026-04-21 00:48 | 34.12855 | 131.66901 | 20098 ft | 269 kts | 277° |
| 2026-04-21 00:49 | 34.13079 | 131.64694 | 20098 ft | 269 kts | 276° |
| 2026-04-21 00:49 | 34.13291 | 131.62427 | 20104 ft | 269 kts | 276° |
| 2026-04-21 00:49 | 34.13500 | 131.60202 | 20107 ft | 268 kts | 277° |
| 2026-04-21 00:49 | 34.13711 | 131.57971 | 20105 ft | 268 kts | 277° |
| 2026-04-21 00:50 | 34.13925 | 131.55727 | 20107 ft | 268 kts | 277° |
| 2026-04-21 00:50 | 34.14140 | 131.53491 | 20105 ft | 268 kts | 276° |
| 2026-04-21 00:50 | 34.14353 | 131.51277 | 20103 ft | 268 kts | 277° |
| 2026-04-21 00:50 | 34.14568 | 131.49060 | 20100 ft | 268 kts | 276° |
| 2026-04-21 00:51 | 34.14785 | 131.46812 | 20101 ft | 268 kts | 277° |
| 2026-04-21 00:51 | 34.15001 | 131.44582 | 20103 ft | 268 kts | 276° |
| 2026-04-21 00:51 | 34.15216 | 131.42357 | 20100 ft | 268 kts | 277° |
| 2026-04-21 00:51 | 34.15431 | 131.40123 | 20105 ft | 268 kts | 277° |
| 2026-04-21 00:52 | 34.15646 | 131.37901 | 20109 ft | 268 kts | 276° |
| 2026-04-21 00:52 | 34.15862 | 131.35658 | 20112 ft | 268 kts | 277° |
| 2026-04-21 00:52 | 34.16076 | 131.33440 | 20117 ft | 268 kts | 277° |
| 2026-04-21 00:52 | 34.16291 | 131.31190 | 20118 ft | 269 kts | 276° |
| 2026-04-21 00:53 | 34.16508 | 131.28937 | 20106 ft | 269 kts | 276° |
| 2026-04-21 00:53 | 34.16721 | 131.26710 | 20102 ft | 269 kts | 276° |
| 2026-04-21 00:53 | 34.16935 | 131.24464 | 20108 ft | 269 kts | 277° |
| 2026-04-21 00:53 | 34.17147 | 131.22243 | 20114 ft | 269 kts | 276° |
| 2026-04-21 00:54 | 34.17363 | 131.19978 | 20121 ft | 270 kts | 276° |
| 2026-04-21 00:54 | 34.17577 | 131.17731 | 20110 ft | 270 kts | 276° |
| 2026-04-21 00:54 | 34.17794 | 131.15485 | 20111 ft | 270 kts | 276° |
| 2026-04-21 00:54 | 34.18011 | 131.13258 | 20119 ft | 270 kts | 276° |
| 2026-04-21 00:55 | 34.18222 | 131.11003 | 20114 ft | 270 kts | 277° |
| 2026-04-21 00:55 | 34.18432 | 131.08745 | 20081 ft | 267 kts | 276° |
| 2026-04-21 00:55 | 34.18639 | 131.06523 | 19770 ft | 272 kts | 276° |
| 2026-04-21 00:55 | 34.18850 | 131.04246 | 19411 ft | 273 kts | 276° |
| 2026-04-21 00:56 | 34.18989 | 131.01973 | 18999 ft | 274 kts | 269° |
| 2026-04-21 00:56 | 34.18479 | 130.99751 | 18650 ft | 277 kts | 253° |
| 2026-04-21 00:56 | 34.17723 | 130.97620 | 18260 ft | 276 kts | 252° |
| 2026-04-21 00:56 | 34.16956 | 130.95494 | 17876 ft | 275 kts | 252° |
| 2026-04-21 00:57 | 34.16202 | 130.93407 | 17508 ft | 274 kts | 253° |
| 2026-04-21 00:57 | 34.15440 | 130.91287 | 17135 ft | 274 kts | 253° |
| 2026-04-21 00:57 | 34.14686 | 130.89191 | 16746 ft | 274 kts | 252° |
| 2026-04-21 00:57 | 34.13934 | 130.87089 | 16364 ft | 274 kts | 252° |
| 2026-04-21 00:58 | 34.13175 | 130.84969 | 15987 ft | 274 kts | 253° |
| 2026-04-21 00:58 | 34.12419 | 130.82866 | 15603 ft | 274 kts | 252° |
| 2026-04-21 00:58 | 34.11465 | 130.80856 | 15213 ft | 280 kts | 244° |
| 2026-04-21 00:58 | 34.10342 | 130.78920 | 14815 ft | 281 kts | 242° |
| 2026-04-21 00:59 | 34.09222 | 130.77008 | 14430 ft | 282 kts | 242° |
| 2026-04-21 00:59 | 34.08086 | 130.75073 | 14028 ft | 282 kts | 242° |
| 2026-04-21 00:59 | 34.06958 | 130.73141 | 13636 ft | 282 kts | 242° |
| 2026-04-21 00:59 | 34.05827 | 130.71205 | 13251 ft | 282 kts | 242° |
| 2026-04-21 01:00 | 34.04707 | 130.69286 | 12835 ft | 283 kts | 242° |
| 2026-04-21 01:00 | 34.03563 | 130.67322 | 12471 ft | 284 kts | 242° |
| 2026-04-21 01:00 | 34.02433 | 130.65382 | 12071 ft | 286 kts | 242° |
| 2026-04-21 01:00 | 34.01289 | 130.63417 | 11660 ft | 287 kts | 242° |
| 2026-04-21 01:01 | 34.00141 | 130.61444 | 11248 ft | 289 kts | 242° |
| 2026-04-21 01:01 | 33.99269 | 130.59288 | 10789 ft | 281 kts | 263° |
| 2026-04-21 01:01 | 33.99220 | 130.56981 | 10374 ft | 276 kts | 278° |
| 2026-04-21 01:01 | 33.99353 | 130.54681 | 9963 ft | 279 kts | 279° |
| 2026-04-21 01:02 | 33.99498 | 130.52350 | 9571 ft | 281 kts | 279° |
| 2026-04-21 01:02 | 33.99673 | 130.50018 | 9210 ft | 279 kts | 284° |
| 2026-04-21 01:02 | 34.00408 | 130.47965 | 9087 ft | 254 kts | 309° |
| 2026-04-21 01:02 | 34.01472 | 130.46324 | 9030 ft | 247 kts | 312° |
| 2026-04-21 01:03 | 34.01808 | 130.45816 | 9028 ft | 246 kts | 312° |
| 2026-04-21 01:03 | 34.02828 | 130.44281 | 9012 ft | 241 kts | 312° |
| 2026-04-21 01:03 | 34.03885 | 130.42700 | 9019 ft | 242 kts | 312° |
| 2026-04-21 01:03 | 34.04942 | 130.41119 | 9012 ft | 244 kts | 312° |
| 2026-04-21 01:04 | 34.05959 | 130.39482 | 8995 ft | 247 kts | 304° |
| 2026-04-21 01:04 | 34.06317 | 130.37442 | 8906 ft | 263 kts | 270° |
| 2026-04-21 01:04 | 34.05581 | 130.35371 | 8829 ft | 281 kts | 237° |
| 2026-04-21 01:04 | 34.03947 | 130.34026 | 8760 ft | 295 kts | 203° |
| 2026-04-21 01:05 | 34.01914 | 130.33478 | 8636 ft | 299 kts | 192° |
| 2026-04-21 01:05 | 33.99853 | 130.33099 | 8513 ft | 297 kts | 190° |
| 2026-04-21 01:05 | 33.97802 | 130.32774 | 8288 ft | 298 kts | 189° |
| 2026-04-21 01:05 | 33.95755 | 130.32478 | 7840 ft | 295 kts | 188° |
| 2026-04-21 01:06 | 33.93751 | 130.32208 | 7636 ft | 280 kts | 187° |
| 2026-04-21 01:06 | 33.91813 | 130.31958 | 7233 ft | 277 kts | 187° |
| 2026-04-21 01:06 | 33.89935 | 130.31723 | 6832 ft | 273 kts | 186° |
| 2026-04-21 01:06 | 33.88044 | 130.31494 | 6307 ft | 273 kts | 185° |
| 2026-04-21 01:07 | 33.86155 | 130.31270 | 5848 ft | 270 kts | 185° |
| 2026-04-21 01:07 | 33.84295 | 130.31050 | 5386 ft | 267 kts | 184° |
| 2026-04-21 01:07 | 33.82454 | 130.30841 | 4947 ft | 264 kts | 183° |
| 2026-04-21 01:07 | 33.80631 | 130.30635 | 4526 ft | 259 kts | 184° |
| 2026-04-21 01:08 | 33.78907 | 130.30309 | 4315 ft | 246 kts | 186° |
| 2026-04-21 01:08 | 33.77307 | 130.30592 | 3962 ft | 224 kts | 143° |
| 2026-04-21 01:08 | 33.76382 | 130.31876 | 3681 ft | 192 kts | 105° |
| 2026-04-21 01:08 | 33.75629 | 130.33157 | 3470 ft | 194 kts | 133° |
| 2026-04-21 01:09 | 33.74480 | 130.34032 | 3264 ft | 192 kts | 141° |
| 2026-04-21 01:09 | 33.73360 | 130.34866 | 3055 ft | 188 kts | 139° |
| 2026-04-21 01:09 | 33.72260 | 130.35678 | 2883 ft | 186 kts | 141° |
| 2026-04-21 01:09 | 33.71160 | 130.36449 | 2611 ft | 177 kts | 142° |
| 2026-04-21 01:10 | 33.70110 | 130.37169 | 2405 ft | 170 kts | 142° |
| 2026-04-21 01:10 | 33.69094 | 130.37868 | 2155 ft | 167 kts | 142° |
| 2026-04-21 01:10 | 33.68100 | 130.38548 | 2025 ft | 155 kts | 142° |
| 2026-04-21 01:10 | 33.67184 | 130.39169 | 1776 ft | 150 kts | 141° |
| 2026-04-21 01:11 | 33.66295 | 130.39781 | 1546 ft | 144 kts | 142° |
| 2026-04-21 01:11 | 33.65447 | 130.40363 | 1347 ft | 139 kts | 143° |
| 2026-04-21 01:11 | 33.64611 | 130.40933 | 1155 ft | 138 kts | 144° |
| 2026-04-21 01:11 | 33.63779 | 130.41504 | 967 ft | 136 kts | 144° |
| 2026-04-21 01:12 | 33.62968 | 130.42059 | 822 ft | 133 kts | 144° |
| 2026-04-21 01:12 | 33.62164 | 130.42612 | 632 ft | 131 kts | 144° |
| 2026-04-21 01:12 | 33.61384 | 130.43150 | 450 ft | 134 kts | 144° |
| 2026-04-21 01:12 | 33.60566 | 130.43723 | 271 ft | 136 kts | 147° |
| 2026-04-21 01:13 | 33.59741 | 130.44273 | 119 ft | 134 kts | 145° |
| 2026-04-21 01:13 | 33.58964 | 130.44814 | 195 ft | 127 kts | 148° |
| 2026-04-21 01:13 | 33.58136 | 130.45290 | 606 ft | 149 kts | 147° |
| 2026-04-21 01:13 | 33.57251 | 130.45996 | 1279 ft | 157 kts | 137° |
| 2026-04-21 01:14 | 33.56363 | 130.46725 | 2049 ft | 164 kts | 140° |
| 2026-04-21 01:14 | 33.55368 | 130.47452 | 2799 ft | 172 kts | 142° |
| 2026-04-21 01:14 | 33.54337 | 130.48160 | 3560 ft | 177 kts | 143° |
| 2026-04-21 01:14 | 33.53231 | 130.48845 | 4252 ft | 186 kts | 149° |
| 2026-04-21 01:15 | 33.52008 | 130.49412 | 4965 ft | 192 kts | 154° |
| 2026-04-21 01:15 | 33.50755 | 130.50000 | 5704 ft | 196 kts | 152° |
| 2026-04-21 01:15 | 33.49491 | 130.50647 | 6443 ft | 199 kts | 151° |
| 2026-04-21 01:15 | 33.48207 | 130.51352 | 6847 ft | 208 kts | 150° |
| 2026-04-21 01:16 | 33.46882 | 130.52125 | 6786 ft | 214 kts | 149° |
| 2026-04-21 01:16 | 33.45446 | 130.52707 | 6722 ft | 222 kts | 174° |
| 2026-04-21 01:16 | 33.43959 | 130.52339 | 6673 ft | 222 kts | 211° |
| 2026-04-21 01:16 | 33.42887 | 130.51086 | 6618 ft | 210 kts | 247° |
| 2026-04-21 01:17 | 33.42466 | 130.49464 | 6138 ft | 202 kts | 275° |
| 2026-04-21 01:17 | 33.42784 | 130.47951 | 5665 ft | 184 kts | 310° |
| 2026-04-21 01:17 | 33.43650 | 130.46867 | 5227 ft | 178 kts | 324° |
| 2026-04-21 01:17 | 33.44559 | 130.45857 | 4815 ft | 179 kts | 324° |
| 2026-04-21 01:18 | 33.45477 | 130.44885 | 4404 ft | 179 kts | 327° |
| 2026-04-21 01:18 | 33.46441 | 130.43942 | 4000 ft | 179 kts | 328° |
| 2026-04-21 01:18 | 33.47404 | 130.42993 | 3587 ft | 178 kts | 328° |
| 2026-04-21 01:18 | 33.48359 | 130.42047 | 3135 ft | 181 kts | 328° |
| 2026-04-21 01:19 | 33.49316 | 130.41090 | 2783 ft | 179 kts | 327° |
| 2026-04-21 01:19 | 33.50282 | 130.40141 | 2370 ft | 179 kts | 327° |
| 2026-04-21 01:19 | 33.51216 | 130.39233 | 2194 ft | 168 kts | 328° |
| 2026-04-21 01:19 | 33.52112 | 130.38361 | 2045 ft | 166 kts | 328° |
| 2026-04-21 01:20 | 33.53055 | 130.37466 | 1944 ft | 178 kts | 328° |
| 2026-04-21 01:20 | 33.54064 | 130.36528 | 1852 ft | 190 kts | 328° |
| 2026-04-21 01:20 | 33.55142 | 130.35535 | 1744 ft | 201 kts | 328° |
| 2026-04-21 01:20 | 33.56278 | 130.34503 | 1638 ft | 208 kts | 328° |
| 2026-04-21 01:21 | 33.57523 | 130.33713 | 1521 ft | 189 kts | 353° |
| 2026-04-21 01:21 | 33.58720 | 130.33920 | 1507 ft | 167 kts | 31° |
| 2026-04-21 01:21 | 33.59523 | 130.34847 | 1506 ft | 157 kts | 48° |
| 2026-04-21 01:21 | 33.60225 | 130.35817 | 1532 ft | 154 kts | 48° |
| 2026-04-21 01:22 | 33.60784 | 130.36874 | 1550 ft | 141 kts | 64° |
| 2026-04-21 01:22 | 33.61192 | 130.37915 | 1390 ft | 136 kts | 63° |
| 2026-04-21 01:22 | 33.61617 | 130.38924 | 1221 ft | 133 kts | 60° |
| 2026-04-21 01:22 | 33.61983 | 130.39905 | 1091 ft | 128 kts | 65° |
| 2026-04-21 01:23 | 33.62305 | 130.40895 | 986 ft | 128 kts | 70° |
| 2026-04-21 01:23 | 33.62418 | 130.41957 | 746 ft | 135 kts | 97° |
| 2026-04-21 01:23 | 33.61847 | 130.42854 | 518 ft | 144 kts | 144° |
| 2026-04-21 01:23 | 33.60952 | 130.43448 | 380 ft | 151 kts | 147° |
| 2026-04-21 01:24 | 33.60003 | 130.44104 | 177 ft | 157 kts | 147° |
| 2026-04-21 01:24 | 33.59098 | 130.44722 | 47 ft | 140 kts | 146° |
| 2026-04-21 01:24 | 33.58400 | 130.45203 | 44 ft | 77 kts | 150° |
| 2026-04-21 01:24 | 33.58146 | 130.45399 | 44 ft | 29 kts | 133° |
| 2026-04-21 01:25 | 33.58070 | 130.45541 | 44 ft | 12 kts | 114° |
| 2026-04-21 01:25 | 33.58098 | 130.45616 | 44 ft | 9 kts | 15° |
| 2026-04-21 01:25 | 33.58149 | 130.45599 | 44 ft | 6 kts | 332° |
| 2026-04-21 01:25 | 33.58198 | 130.45567 | 44 ft | 11 kts | 330° |
| 2026-04-21 01:26 | 33.58280 | 130.45512 | 44 ft | 15 kts | 328° |
| 2026-04-21 01:26 | 33.58379 | 130.45444 | 44 ft | 17 kts | 332° |
| 2026-04-21 01:26 | 33.58493 | 130.45366 | 44 ft | 19 kts | 329° |
| 2026-04-21 01:26 | 33.58602 | 130.45290 | 44 ft | 16 kts | 329° |
| 2026-04-21 01:27 | 33.58691 | 130.45230 | 44 ft | 13 kts | 330° |
| 2026-04-21 01:27 | 33.58769 | 130.45175 | 44 ft | 11 kts | 329° |
| 2026-04-21 01:27 | 33.58830 | 130.45134 | 44 ft | 9 kts | 331° |
| 2026-04-21 01:27 | 33.58879 | 130.45102 | 44 ft | 6 kts | 327° |
| 2026-04-21 01:28 | 33.58922 | 130.45077 | 44 ft | 5 kts | 10° |
| 2026-04-21 01:28 | 33.58945 | 130.45113 | 44 ft | 4 kts | 59° |
| 2026-04-21 01:28 | 33.58959 | 130.45142 | 44 ft | 2 kts | 60° |
| 2026-04-21 01:28 | 33.58962 | 130.45148 | 44 ft | 0 kts | 59° |